Island Lookout — WDF6311 — position and weather

sailwx.info

Track history (hours):
 
Tides and Currents Weather Stations Pressure Air Temp Water Temp Dewpoint Dewpoint Depression Visibility Wind Speed Wind Dir Waves Ship Positions

Island Lookout

Owner: Stevens Towing Company Inc., Yonges Island, SC. More information available from US FCC via Universal Licensing System and Coast Guard Vessel Documentation Center.

Last reported at 2016-Dec-06 17:33 UTC. Time now 2016-Dec-06 18:04 UTC.
Position N 39°12' W 076°35'.

Length 22 m; draft 2.9 m.

Type: Towing. MMSI: 367472930.

Date/timePositionNaut miles runAvg speedWind from/ knotsBaromVisibWave heightAir tempDewpointWater temp
2016-Dec-06 17:33N 39°12' W 076°35'0 0.0
2016-Dec-06 16:33N 39°12' W 076°35'0 0.0
2016-Dec-06 15:33N 39°12' W 076°35'0 0.0
2016-Dec-06 14:33N 39°12' W 076°35'1 1.4
2016-Dec-06 13:33N 39°14' W 076°34'1 0.9
2016-Dec-06 12:33N 39°13' W 076°35'1 0.6
2016-Dec-06 11:33N 39°12' W 076°35'0 0.0
2016-Dec-06 10:33N 39°12' W 076°35'0 0.0
2016-Dec-06 09:33N 39°12' W 076°35'0 0.0
2016-Dec-06 08:33N 39°12' W 076°35'0 0.0
2016-Dec-06 07:33N 39°12' W 076°35'0 0.0
2016-Dec-06 06:33N 39°12' W 076°35'0 0.0
2016-Dec-06 05:33N 39°12' W 076°35'0 0.0
2016-Dec-06 04:33N 39°12' W 076°35'1 1.3
2016-Dec-06 03:33N 39°13' W 076°34'7 6.8
2016-Dec-06 02:33N 39°10' W 076°26'7 7.1
2016-Dec-06 01:32N 39°03' W 076°23'7 7.6
2016-Dec-06 00:33N 38°56' W 076°24'120 6.5
2016-Dec-05 06:09N 36°56' W 076°20'4 6.2
2016-Dec-05 05:33N 36°52' W 076°20'6 5.6
2016-Dec-05 04:33N 36°47' W 076°18'4 4.0
2016-Dec-05 03:30N 36°43' W 076°15'0 0.2
2016-Dec-05 02:33N 36°43' W 076°15'0 0.0
2016-Dec-05 01:33N 36°43' W 076°15'0 0.0
2016-Dec-05 00:33N 36°43' W 076°15'0 0.0
2016-Dec-04 23:33N 36°43' W 076°15'0 0.0
2016-Dec-04 22:33N 36°43' W 076°15'0 0.0
2016-Dec-04 21:33N 36°43' W 076°15'0 0.0
2016-Dec-04 20:33N 36°43' W 076°15'0 0.0
2016-Dec-04 19:33N 36°43' W 076°15'0 0.0
2016-Dec-04 18:33N 36°43' W 076°15'0 0.0
2016-Dec-04 17:33N 36°43' W 076°15'0 0.0
2016-Dec-04 16:33N 36°43' W 076°15'0 0.0
2016-Dec-04 15:33N 36°43' W 076°15'0 0.0
2016-Dec-04 14:33N 36°43' W 076°15'0 0.0
2016-Dec-04 13:33N 36°43' W 076°15'0 0.0
2016-Dec-04 12:33N 36°43' W 076°15'0 0.0
2016-Dec-04 11:33N 36°43' W 076°15'0 0.0
2016-Dec-04 10:33N 36°43' W 076°15'0 0.0
2016-Dec-04 09:33N 36°43' W 076°15'0 0.0
2016-Dec-04 08:33N 36°43' W 076°15'0 0.0
2016-Dec-04 07:33N 36°43' W 076°15'0 0.0
2016-Dec-04 06:33N 36°43' W 076°15'0 0.0
2016-Dec-04 05:33N 36°43' W 076°15'0 0.0
2016-Dec-04 04:33N 36°43' W 076°15'0 0.0
2016-Dec-04 03:33N 36°43' W 076°15'0 0.0
2016-Dec-04 02:33N 36°43' W 076°15'0 0.0
2016-Dec-04 01:33N 36°43' W 076°15'0 0.0
2016-Dec-04 00:33N 36°43' W 076°15'0 0.0
2016-Dec-03 23:33N 36°43' W 076°15'0 0.0
2016-Dec-03 22:33N 36°43' W 076°15'0 0.0
2016-Dec-03 21:33N 36°43' W 076°15'0 0.0
2016-Dec-03 20:33N 36°43' W 076°15'7 3.6
2016-Dec-03 18:32N 36°43' W 076°06'108 4.9
2016-Dec-02 20:33N 34°59' W 076°42'6 5.7
2016-Dec-02 19:33N 34°53' W 076°41'6 6.4
2016-Dec-02 18:33N 34°47' W 076°41'4 3.8
2016-Dec-02 17:33N 34°43' W 076°42'4 3.5
2016-Dec-02 16:33N 34°46' W 076°41'5 5.4
2016-Dec-02 15:33N 34°52' W 076°41'5 4.9
2016-Dec-02 14:33N 34°57' W 076°40'  
Track history (hours):
 
Tides and Currents Weather Stations Pressure Air Temp Water Temp Dewpoint Dewpoint Depression Visibility Wind Speed Wind Dir Waves Ship Positions

Island Lookout

Owner: Stevens Towing Company Inc., Yonges Island, SC. More information available from US FCC via Universal Licensing System and Coast Guard Vessel Documentation Center.

Last reported at 2016-Dec-06 17:33 UTC. Time now 2016-Dec-06 18:04 UTC.
Position N 39°12' W 076°35'.

Length 22 m; draft 2.9 m.

Type: Towing. MMSI: 367472930.

Date/timePositionNaut miles runAvg speedWind from/ knotsBaromVisibWave heightAir tempDewpointWater temp
2016-Dec-06 17:33N 39°12' W 076°35'0 0.0
2016-Dec-06 16:33N 39°12' W 076°35'0 0.0
2016-Dec-06 15:33N 39°12' W 076°35'0 0.0
2016-Dec-06 14:33N 39°12' W 076°35'1 1.4
2016-Dec-06 13:33N 39°14' W 076°34'1 0.9
2016-Dec-06 12:33N 39°13' W 076°35'1 0.6
2016-Dec-06 11:33N 39°12' W 076°35'0 0.0
2016-Dec-06 10:33N 39°12' W 076°35'0 0.0
2016-Dec-06 09:33N 39°12' W 076°35'0 0.0
2016-Dec-06 08:33N 39°12' W 076°35'0 0.0
2016-Dec-06 07:33N 39°12' W 076°35'0 0.0
2016-Dec-06 06:33N 39°12' W 076°35'0 0.0
2016-Dec-06 05:33N 39°12' W 076°35'0 0.0
2016-Dec-06 04:33N 39°12' W 076°35'1 1.3
2016-Dec-06 03:33N 39°13' W 076°34'7 6.8
2016-Dec-06 02:33N 39°10' W 076°26'7 7.1
2016-Dec-06 01:32N 39°03' W 076°23'7 7.6
2016-Dec-06 00:33N 38°56' W 076°24'120 6.5
2016-Dec-05 06:09N 36°56' W 076°20'4 6.2
2016-Dec-05 05:33N 36°52' W 076°20'6 5.6
2016-Dec-05 04:33N 36°47' W 076°18'4 4.0
2016-Dec-05 03:30N 36°43' W 076°15'0 0.2
2016-Dec-05 02:33N 36°43' W 076°15'0 0.0
2016-Dec-05 01:33N 36°43' W 076°15'0 0.0
2016-Dec-05 00:33N 36°43' W 076°15'0 0.0
2016-Dec-04 23:33N 36°43' W 076°15'0 0.0
2016-Dec-04 22:33N 36°43' W 076°15'0 0.0
2016-Dec-04 21:33N 36°43' W 076°15'0 0.0
2016-Dec-04 20:33N 36°43' W 076°15'0 0.0
2016-Dec-04 19:33N 36°43' W 076°15'0 0.0
2016-Dec-04 18:33N 36°43' W 076°15'0 0.0
2016-Dec-04 17:33N 36°43' W 076°15'0 0.0
2016-Dec-04 16:33N 36°43' W 076°15'0 0.0
2016-Dec-04 15:33N 36°43' W 076°15'0 0.0
2016-Dec-04 14:33N 36°43' W 076°15'0 0.0
2016-Dec-04 13:33N 36°43' W 076°15'0 0.0
2016-Dec-04 12:33N 36°43' W 076°15'0 0.0
2016-Dec-04 11:33N 36°43' W 076°15'0 0.0
2016-Dec-04 10:33N 36°43' W 076°15'0 0.0
2016-Dec-04 09:33N 36°43' W 076°15'0 0.0
2016-Dec-04 08:33N 36°43' W 076°15'0 0.0
2016-Dec-04 07:33N 36°43' W 076°15'0 0.0
2016-Dec-04 06:33N 36°43' W 076°15'0 0.0
2016-Dec-04 05:33N 36°43' W 076°15'0 0.0
2016-Dec-04 04:33N 36°43' W 076°15'0 0.0
2016-Dec-04 03:33N 36°43' W 076°15'0 0.0
2016-Dec-04 02:33N 36°43' W 076°15'0 0.0
2016-Dec-04 01:33N 36°43' W 076°15'0 0.0
2016-Dec-04 00:33N 36°43' W 076°15'0 0.0
2016-Dec-03 23:33N 36°43' W 076°15'0 0.0
2016-Dec-03 22:33N 36°43' W 076°15'0 0.0
2016-Dec-03 21:33N 36°43' W 076°15'0 0.0
2016-Dec-03 20:33N 36°43' W 076°15'7 3.6
2016-Dec-03 18:32N 36°43' W 076°06'108 4.9
2016-Dec-02 20:33N 34°59' W 076°42'6 5.7
2016-Dec-02 19:33N 34°53' W 076°41'6 6.4
2016-Dec-02 18:33N 34°47' W 076°41'4 3.8
2016-Dec-02 17:33N 34°43' W 076°42'4 3.5
2016-Dec-02 16:33N 34°46' W 076°41'5 5.4
2016-Dec-02 15:33N 34°52' W 076°41'5 4.9
2016-Dec-02 14:33N 34°57' W 076°40'  

Dump ship's entire track history